Tiempo atmosférico en la estación meteorológica de Llanes, Asturias (10 m.)



Fecha
DESCASC
Temp. máxima en grados centígrados (hora)
DESCASC
Temp. mínima en grados centígrados (hora)
DESCASC
Temp. media en grados centígrados
DESCASC
Racha de viento máxima en m/sg (hora)
DESCASC
Velocidad máxima media en intervalos de 10 minutos(hora)
DESCASC
Precipitaciones diarias en mm
DESCASC
Precipitaciones de 00:00 a 06:00 en mm
DESCASC
Precipitaciones de 06:00 a 12:00 en mm
DESCASC
Precipitaciones de 12:00 a 18:00 en mm
DESCASC
Precipitaciones de 18:00 a 24:00 en mm
DESCASC
22-04-2019 16.1 (15:20) 9.6 (07:40) 12.9 9.17 (13:20) 6.67 (14:40) 0 0 0 0 0
21-04-2019 17.3 (15:50) 9.9 (06:00) 13.6 9.44 (12:40) 5 (13:40) 0 0 0 0 0
20-04-2019 18 (18:10) 9.7 (07:30) 13.8 6.94 (03:00) 2.78 (02:40) 0 0 0 0 0
19-04-2019 17.1 (16:50) 12.1 (23:59) 14.6 13.89 (16:30) 9.72 (16:30) 5.2 5.2 0 0 0
18-04-2019 15 (12:20) 12.5 (00:00) 13.8 7.22 (14:30) 5.56 (14:30) 6.8 0 0 1.4 5.4
17-04-2019 22.6 (15:50) 11.4 (00:00) 17 9.72 (20:20) 5.56 (20:20) 0 0 0 0 0
16-04-2019 16.3 (14:20) 7.4 (00:00) 11.8 8.89 (13:00) 6.39 (12:10) 0 0 0 0 0
15-04-2019 17.4 (13:10) 11.7 (00:00) 14.5 16.94 (12:30) 8.89 (12:30) 11.8 0 0 5.6 6.2
14-04-2019 18.3 (12:50) 11.7 (00:00) 15 8.33 (21:00) 5.83 (19:40) 0 0 0 0 0
13-04-2019 16.8 (15:50) 7.3 (00:00) 12 9.44 (01:00) 5.28 (07:20) 0.2 0 0.2 0 0
12-04-2019 14.6 (11:30) 6.8 (00:00) 10.7 11.39 (08:20) 7.22 (18:00) 0 0 0 0 0
11-04-2019 14.2 (14:00) 9.8 (00:00) 12 13.89 (14:50) 6.67 (15:50) 1 0.4 0.2 0 0.4
10-04-2019 15.1 (13:30) 9.1 (00:00) 12.1 9.17 (18:00) 4.17 (18:00) 3.6 0 3.2 0.2 0.2
09-04-2019 14.6 (15:50) 7.9 (00:00) 11.3 10.28 (13:00) 6.39 (03:10) 0.4 0 0 0.4 0
08-04-2019 16.2 (14:00) 10 (00:00) 13.1 14.72 (05:50) 7.78 (18:40) 3.2 0 0 0.2 3
07-04-2019 15.3 (14:30) 7.5 (00:00) 11.4 14.17 (00:20) 6.39 (07:20) 1 0.8 0 0 0.2
06-04-2019 15.2 (12:20) 5.5 (00:00) 10.3 13.61 (22:20) 6.94 (16:50) 2.4 0 0 0 2.4
05-04-2019 13.8 (12:40) 8.2 (00:00) 11 8.61 (21:00) 6.11 (16:20) 1.2 0 1 0 0.2
04-04-2019 15.2 (13:10) 4.8 (00:00) 10 17.5 (03:20) 6.11 (04:30) 4 4 0 0 0
03-04-2019 11.2 (14:20) 5.4 (00:00) 8.3 20 (11:50) 8.89 (11:50) 16.8 1.2 6 4.4 5.2
02-04-2019 14 (11:20) 9 (00:00) 11.5 11.67 (21:00) 5.83 (21:30) 1 0 0 0 1
01-04-2019 17.4 (15:40) 7.6 (00:00) 12.5 7.78 (07:50) 5.28 (08:10) 0 0 0 0 0
31-03-2019 17.6 (16:00) 9.4 (00:00) 13.5 12.22 (19:30) 7.22 (19:30) 0 0 0 0 0
30-03-2019 17 (15:50) 7.7 (00:00) 12.3 8.06 (03:40) 6.39 (04:40) 0 0 0 0 0
29-03-2019 16.6 (15:00) 6.7 (00:00) 11.7 12.22 (07:20) 5.83 (05:50) 0 0 0 0 0
28-03-2019 14.9 (13:40) 7.5 (00:00) 11.2 10.28 (19:30) 6.67 (18:10) 0 0 0 0 0
27-03-2019 13.6 (12:50) 9.4 (00:00) 11.5 12.22 (12:10) 8.89 (11:40) 0 0 0 0 0
26-03-2019 12.5 (14:00) 9.5 (00:00) 11 16.67 (13:20) 11.39 (13:20) 0 0 0 0 0
25-03-2019 14.5 (11:50) 10.6 (00:00) 12.6 11.67 (10:00) 7.78 (10:00) 0 0 0 0 0

Gráficas

Temp. máximas Temp. mínimas Temp. medias Precipitaciones Rachas de viento máximas Velocidades máximas media en intervalos de 10 minutos

Datos horarios

Fecha y hora oficial Temperatura (ºC) Velocidad del viento (km/h) Dirección del viento Racha (km/h) Dirección de racha Precipitación (mm) Presión (hPa) Tendencia (hPa) Humedad (%)
2019-04-23 23:00:00 8.6 4 Sudoeste 24 Oeste 0 997.7 1.2 85
2019-04-23 22:00:00 9.3 5 Sudoeste 19 Oeste 0 997.3 1.5 84
2019-04-23 21:00:00 9.3 3 Sur 20 Oeste 0.2 996.7 2.3 84
2019-04-23 20:00:00 8.8 9 Oeste 44 Oeste 5 996.5 3.2 83
2019-04-23 19:00:00 11.1 10 Oeste 36 Noroeste 2.2 995.8 2.5 79
2019-04-23 18:00:00 12.4 11 Noroeste 24 Este 0 994.4 0.9 71
2019-04-23 17:00:00 12.6 10 Este 24 Este 0 993.3 -0.2 73
2019-04-23 16:00:00 12.9 17 Este 26 Este 0 993.3 -0.5 74
2019-04-23 15:00:00 13.2 12 Este 19 Este 0 993.5 -0.1 76
2019-04-23 14:00:00 13.5 4 Este 17 Oeste 0 993.5 0.2 76
2019-04-23 13:00:00 12.2 4 Oeste 27 Noroeste 0.6 993.8 1.2 82
2019-04-23 12:00:00 12.1 9 Noroeste 20 Oeste 0 993.6 1.3 82
2019-04-23 11:00:00 12.3 5 Oeste 12 Sudoeste 1 993.3 1.5 83
2019-04-23 10:00:00 12.4 8 Oeste 15 Sudoeste 0.2 992.6 1.1 83
2019-04-23 09:00:00 12.8 6 Oeste 18 Oeste 0.2 992.3 0.9 85
2019-04-23 08:00:00 13.2 5 Sudoeste 16 Oeste 0 991.8 0 84
2019-04-23 07:00:00 13.5 5 Oeste 17 Oeste 0 991.5 -0.2 82
2019-04-23 06:00:00 13.6 8 Oeste 18 Noroeste 0 991.4 -0.4 80
2019-04-23 05:00:00 13.3 5 Oeste 18 Oeste 0 991.8 -0.4 76
2019-04-23 04:00:00 13.3 6 Oeste 20 Oeste 0 991.7 -0.4 75
2019-04-23 03:00:00 13.5 6 Sudoeste 21 Oeste 0 991.8 0 77
2019-04-23 02:00:00 13.7 12 Oeste 32 Oeste 0 992.2 0.3 83
2019-04-23 01:00:00 14.1 13 Oeste 25 Oeste 0 992.1 -0.1 86
2019-04-23 00:00:00 14.1 8 Noroeste 19 Sudoeste 0 991.8 -0.5 85
2019-04-22 23:00:00 14.1 4 Sudoeste 18 Oeste 0 991.9 -0.8 85
2019-04-22 22:00:00 14.1 5 Oeste 19 Oeste 0 992.2 -1.2 85
2019-04-22 21:00:00 14.6 3 Noroeste 15 Noroeste 0 992.3 -1.7 84
2019-04-22 20:00:00 15 9 Este 25 Este 0 992.7 -2 83
2019-04-22 19:00:00 15.7 15 Este 27 Este 0 993.4 -2.2 77
2019-04-22 18:00:00 15.5 17 Este 32 Este 0 994 -2.6 79
2019-04-22 17:00:00 15.2 18 Este 33 Este 0 994.7 -2.8 78
2019-04-22 16:00:00 16 18 Este 32 Este 0 995.6 -3.1 75
2019-04-22 15:00:00 15.8 22 Este 32 Este 0 996.6 -3.2 75
2019-04-22 14:00:00 15.6 20 Este 33 Este 0 997.5 -3.6 73
2019-04-22 13:00:00 15.6 17 Este 25 Este 0 998.7 -3.2 72
2019-04-22 12:00:00 15.3 12 Este 18 Este 0 999.8 -2.5 71
2019-04-22 11:00:00 15.7 4 Nordeste 8 Nordeste 0 1001.1 -1.7 75
2019-04-22 10:00:00 14.5 3 Nordeste 18 Oeste 0 1001.9 -1.3 81
2019-04-22 09:00:00 11.7 6 Sudoeste 19 Oeste 0 1002.3 -1.6 84
2019-04-22 08:00:00 9.8 7 Sudoeste 22 Oeste 0 1002.8 -2.2 86
2019-04-22 07:00:00 9.9 3 Oeste 21 Oeste 0 1003.2 -2.7 85
2019-04-22 06:00:00 10 9 Sudoeste 25 Oeste 0 1003.9 -3.2 85
2019-04-22 05:00:00 11.1 7 Sudoeste 13 Sudoeste 0 1005 -3.1 84
2019-04-22 04:00:00 11.9 5 Sudoeste 14 Oeste 0 1005.9 -3.1 83
2019-04-22 03:00:00 12.3 4 Oeste 14 Oeste 0 1007.1 -2.8 83
2019-04-22 02:00:00 12.5 6 Sudoeste 18 Sur 0 1008.1 -2.3 82
2019-04-22 01:00:00 12.8 2 Noroeste 13 Nordeste 0 1009 -2.1 82
2019-04-22 00:00:00 13.5 10 Este 18 Este 0 1009.9 -1.3 82
2019-04-21 23:00:00 13.4 8 Sudeste 14 Oeste 0 1010.4 -0.9 79
2019-04-21 22:00:00 13.5 10 Sudeste 23 Este 0 1011.1 0 80
2019-04-21 21:00:00 13.8 9 Este 25 Sudeste 0 1011.2 -0.7 82
2019-04-21 20:00:00 14.4 17 Este 26 Este 0 1011.3 -1.3 81
2019-04-21 19:00:00 15.7 6 Este 10 Este 0 1011.1 -1.8 75
2019-04-21 18:00:00 16.8 7 Este 11 Este 0 1011.9 -2 73
2019-04-21 17:00:00 16 9 Nordeste 17 Noroeste 0 1012.6 -1.8 74
2019-04-21 16:00:00 17.2 9 Noroeste 15 Noroeste 0 1012.9 -2 72
2019-04-21 15:00:00 16.2 9 Noroeste 28 Noroeste 0 1013.9 -1.5 75
2019-04-21 14:00:00 15.4 15 Noroeste 31 Noroeste 0 1014.4 -1.6 76
2019-04-21 13:00:00 15.2 14 Noroeste 34 Noroeste 0 1014.9 -1.1 73
2019-04-21 12:00:00 14.5 13 Noroeste 21 Noroeste 0 1015.4 -0.5 73
2019-04-21 11:00:00 14.4 8 Noroeste 17 Noroeste 0 1016 0.6 76
2019-04-21 10:00:00 13.5 3 Sudeste 23 Norte 0 1016 0.5 75
2019-04-21 09:00:00 12.3 8 Sur 19 Noroeste 0 1015.9 0.1 77
2019-04-21 08:00:00 11.2 5 Sudoeste 18 Oeste 0 1015.4 -1.5 75
2019-04-21 07:00:00 10.6 6 Oeste 27 Oeste 0 1015.5 -1.6 74
2019-04-21 06:00:00 9.9 8 Oeste 24 Oeste 0 1015.8 -1.8 75
2019-04-21 05:00:00 10.6 3 Oeste 21 Oeste 0 1016.9 -1.6 74
2019-04-21 04:00:00 10.9 5 Sudoeste 20 Oeste 0 1017.1 -1.9 73
2019-04-21 03:00:00 10.8 9 Sudoeste 14 Oeste 0 1017.6 -1.8 73
2019-04-21 02:00:00 11 8 Oeste 21 Oeste 0 1018.5 -1.3 75
2019-04-21 01:00:00 11.3 5 Oeste 12 Oeste 0 1019 -0.6 77
2019-04-21 00:00:00 11.7 9 Sudoeste 16 Oeste 0 1019.4 -0.1 77
2019-04-20 23:00:00 12.8 3 Sudoeste 15 Oeste 0 1019.8 0.4 74
2019-04-20 22:00:00 13.3 7 Sudoeste 15 Oeste 0 1019.6 0.2 76
2019-04-20 21:00:00 14.3 0 Calma 6 Este 0 1019.5 0 73
2019-04-20 20:00:00 16.3 2 Este 6 Este 0 1019.4 -0.6 74
2019-04-20 19:00:00 17.2 4 Este 6 Este 0 1019.4 -1 72
2019-04-20 18:00:00 17.8 3 Nordeste 5 Nordeste 0 1019.5 -1.3 74
2019-04-20 17:00:00 17.4 3 Nordeste 6 Norte 0 1020 -1.5 75
2019-04-20 16:00:00 17.1 3 Norte 8 Este 0 1020.4 -1.6 77
2019-04-20 15:00:00 16.8 3 Norte 8 Norte 0 1020.8 -1.8 78
2019-04-20 14:00:00 15.7 3 Norte 12 Noroeste 0 1021.5 -1.5 80
2019-04-20 13:00:00 15.2 7 Norte 15 Noroeste 0 1022 -0.8 80
2019-04-20 12:00:00 15.5 6 Noroeste 16 Noroeste 0 1022.6 -0.3 79
2019-04-20 11:00:00 15 5 Noroeste 16 Noroeste 0 1023 0.3 80
2019-04-20 10:00:00 14.2 6 Noroeste 20 Oeste 0 1022.8 0.6 82
2019-04-20 09:00:00 11.8 4 Noroeste 19 Oeste 0 1022.9 0.8 87
2019-04-20 08:00:00 10.1 5 Sudoeste 21 Oeste 0 1022.7 0.3 88
2019-04-20 07:00:00 10 3 Sudoeste 22 Oeste 0 1022.2 -0.6 88
2019-04-20 06:00:00 10.8 6 Oeste 19 Oeste 0 1022.1 -0.5 86
2019-04-20 05:00:00 10.8 5 Sudoeste 14 Sudoeste 0 1022.4 -0.3 85
2019-04-20 04:00:00 10.7 3 Noroeste 14 Sudoeste 0 1022.8 -0.3 85
2019-04-20 03:00:00 10.8 9 Sudoeste 25 Oeste 0 1022.6 -0.4 85
2019-04-20 02:00:00 11.2 7 Sudoeste 15 Oeste 0 1022.7 -0.5 85
2019-04-20 01:00:00 11.8 10 Sudoeste 22 Oeste 0 1023.1 0.5 85
2019-04-20 00:00:00 12.1 10 Sudoeste 17 Oeste 0 1023 1.5 83
2019-04-19 23:00:00 13.1 6 Sudoeste 14 Oeste 0 1023.2 2.4 83
2019-04-19 22:00:00 13.8 5 Sudeste 19 Sudeste 0 1022.6 2.3 81
2019-04-19 21:00:00 14.2 6 Este 14 Norte 0 1021.5 1.4 79
2019-04-19 20:00:00 15 6 Sudeste 27 Sudeste 0 1020.8 1.4 72
2019-04-19 19:00:00 15.1 19 Sudeste 30 Este 0 1020.3 1.5 76
2019-04-19 18:00:00 16 19 Sudeste 35 Este 0 1020.1 1.6 75
2019-04-19 17:00:00 16.3 22 Este 50 Este 0 1019.4 1.2 72
2019-04-19 16:00:00 15.6 28 Sudeste 42 Sudeste 0 1018.8 0.8 76
2019-04-19 15:00:00 15.4 27 Sudeste 40 Sudeste 0 1018.5 0.3 80
2019-04-19 14:00:00 15.3 26 Este 39 Este 0 1018.2 0.2 81
2019-04-19 13:00:00 15.3 19 Sudeste 34 Sudeste 0 1018 0.4 81
2019-04-19 12:00:00 14.9 18 Sudeste 30 Sudeste 0 1018.2 1.4 85
2019-04-19 11:00:00 13.9 12 Este 28 Sudeste 0 1018 2.2 88
2019-04-19 10:00:00 13.4 14 Sudeste 30 Este 0 1017.6 2.4 88
2019-04-19 09:00:00 13.3 16 Sudeste 30 Este 0 1016.8 1.6 88
2019-04-19 08:00:00 13.1 11 Sudeste 21 Este 0 1015.8 0.7 88
2019-04-19 07:00:00 12.9 5 Sur 22 Este 0 1015.2 -0.2 89
2019-04-19 06:00:00 13 14 Este 18 Este 0 1015.2 -0.9 89
2019-04-19 05:00:00 12.8 6 Sudeste 13 Sudeste 0.2 1015.1 -1.1 89
2019-04-19 04:00:00 12.7 10 Sudeste 14 Sudeste 1.4 1015.4 -0.5 89
2019-04-19 03:00:00 12.6 4 Sudeste 15 Oeste 1.6 1016.1 0.1 88
2019-04-19 02:00:00 12.4 7 Sudoeste 15 Este 0.4 1016.2 0 88
2019-04-19 01:00:00 12.5 3 Oeste 12 Norte 1.6 1015.9 -0.1 87
2019-04-19 00:00:00 12.7 2 Este 13 Oeste 1 1016 0.5 87
2019-04-18 23:00:00 12.6 5 Sur 15 Este 0.2 1016.2 1.1 87
2019-04-18 22:00:00 12.7 10 Sudeste 17 Este 1 1016 1.6 87
2019-04-18 21:00:00 12.9 9 Sudeste 15 Sudeste 1.2 1015.5 1.7 87
2019-04-18 20:00:00 13 8 Sudeste 17 Este 1.6 1015.1 1.7 87
2019-04-18 19:00:00 13.5 6 Este 12 Este 0.4 1014.4 0.8 85
2019-04-18 18:00:00 14.1 5 Este 13 Este 0.2 1013.8 -0.2 84
2019-04-18 17:00:00 14.2 8 Este 17 Este 0 1013.4 -0.4 84
2019-04-18 16:00:00 14.2 10 Este 19 Este 0.4 1013.6 0 85
2019-04-18 15:00:00 13.4 16 Este 26 Este 0.8 1014 0.7 83
2019-04-18 14:00:00 14.1 17 Este 22 Este 0 1013.8 0.8 80
2019-04-18 13:00:00 14.6 11 Este 17 Este 0 1013.6 1.2 78
2019-04-18 12:00:00 14.7 12 Sudeste 17 Sudeste 0 1013.3 1.5 76
2019-04-18 11:00:00 14.4 7 Este 15 Este 0 1013 1.6 75
2019-04-18 10:00:00 14.3 6 Sudeste 15 Oeste 0 1012.4 2 73
2019-04-18 09:00:00 13.8 3 Sudeste 16 Oeste 0 1011.8 2.3 74
2019-04-18 08:00:00 13.6 3 Sudoeste 18 Sudoeste 0 1011.4 2.4 73
2019-04-18 07:00:00 13 8 Sudoeste 18 Oeste 0 1010.4 1.9 76
2019-04-18 06:00:00 13.3 3 Norte 15 Oeste 0 1009.5 1.2 76
2019-04-18 05:00:00 13.5 6 Oeste 21 Noroeste 0 1009 1.2 76
2019-04-18 04:00:00 14.2 9 Noroeste 19 Oeste 0 1008.5 0.9 70
2019-04-18 03:00:00 13.9 6 Oeste 19 Oeste 0 1008.3 1.8 74
2019-04-18 02:00:00 14.1 6 Oeste 20 Oeste 0 1007.8 1.1 76
2019-04-18 01:00:00 14.1 6 Sur 18 Oeste 0 1007.6 1.8 76
2019-04-18 00:00:00 14.4 5 Sudeste 20 Oeste 0 1006.5 1.8 76
2019-04-17 23:00:00 14.8 4 Nordeste 20 Oeste 0 1006.7 3.6 76
2019-04-17 22:00:00 15 4 Norte 30 Noroeste 0 1005.8 3 73
2019-04-17 21:00:00 15.5 13 Oeste 35 Noroeste 0 1004.7 1.9 71
2019-04-17 20:00:00 17.9 6 Oeste 10 Nordeste 0 1003.1 -0.2 64
2019-04-17 19:00:00 18.8 4 Sudeste 9 Norte 0 1002.8 -1.1 59
2019-04-17 18:00:00 18.9 3 Noroeste 18 Norte 0 1002.8 -1.2 61
2019-04-17 17:00:00 19.9 4 Oeste 16 Nordeste 0 1003.3 -1 54
2019-04-17 16:00:00 21.6 6 Noroeste 10 Noroeste 0 1003.9 -0.7 42
2019-04-17 15:00:00 21.3 4 Este 13 Este 0 1004 -0.9 53
2019-04-17 14:00:00 19.9 5 Noroeste 9 Norte 0 1004.3 -0.9 61
2019-04-17 13:00:00 17.5 8 Nordeste 14 Nordeste 0 1004.6 -0.3 70
2019-04-17 12:00:00 14.8 6 Sudoeste 24 Oeste 0 1004.9 0.1 77
2019-04-17 11:00:00 13.1 8 Oeste 20 Oeste 0 1005.2 0.4 82
2019-04-17 10:00:00 12.7 6 Oeste 17 Oeste 0 1004.9 0.3 84
2019-04-17 09:00:00 12 5 Sur 17 Sudoeste 0 1004.8 -0.5 84
2019-04-17 08:00:00 11.5 10 Sudoeste 15 Sudoeste 0 1004.8 -0.8 86
2019-04-17 07:00:00 11.9 5 Sudoeste 13 Oeste 0 1004.6 -1.8 86
2019-04-17 06:00:00 11.9 3 Sudoeste 13 Oeste 0 1005.3 -2 86
2019-04-17 05:00:00 12 5 Sudoeste 14 Sur 0 1005.6 -3.1 86
2019-04-17 04:00:00 11.8 5 Sudoeste 14 Sudoeste 0 1006.4 -3.4 85
2019-04-17 03:00:00 12.2 6 Oeste 14 Oeste 0 1007.3 -3.1 84
2019-04-17 02:00:00 12.4 0 Calma 14 Oeste 0 1008.7 -2.7 84
2019-04-17 01:00:00 12.8 4 Este 13 Noroeste 0 1009.8 -2 84
2019-04-17 00:00:00 12.9 3 Sudeste 14 Oeste 0 1010.4 -1.7 83
2019-04-16 23:00:00 12.8 3 Oeste 14 Oeste 0 1011.4 -1 82
2019-04-16 22:00:00 13 3 Oeste 15 Oeste 0 1011.8 -1.1 82
2019-04-16 21:00:00 13.5 4 Oeste 14 Oeste 0 1012.1 -1.3 80
2019-04-16 20:00:00 14.2 4 Noroeste 12 Noroeste 0 1012.4 -1.4 78
2019-04-16 19:00:00 14.6 10 Este 19 Este 0 1012.9 -1.6 76
2019-04-16 18:00:00 14.8 12 Este 29 Este 0 1013.4 -2 73
2019-04-16 17:00:00 15.5 18 Este 30 Este 0 1013.8 -2 72
2019-04-16 16:00:00 15.7 18 Este 29 Sudeste 0 1014.5 -1.7 68
2019-04-16 15:00:00 15.9 20 Este 31 Este 0 1015.4 -1.3 65
2019-04-16 14:00:00 16.1 17 Este 32 Este 0 1015.8 -1.4 68
2019-04-16 13:00:00 15.6 19 Este 32 Este 0 1016.2 -1.1 72
2019-04-16 12:00:00 14.6 21 Este 28 Este 0 1016.7 -0.9 74
2019-04-16 11:00:00 14.4 17 Este 27 Este 0 1017.2 -0.7 74
2019-04-16 10:00:00 13.3 4 Nordeste 13 Oeste 0 1017.3 0.1 79
2019-04-16 09:00:00 10.1 0 Calma 16 Oeste 0 1017.6 0.6 85
2019-04-16 08:00:00 8.1 2 Sudoeste 25 Oeste 0 1017.9 0.9 85
2019-04-16 07:00:00 7.9 2 Oeste 21 Oeste 0 1017.2 -0.1 84
2019-04-16 06:00:00 8.2 8 Sudoeste 26 Oeste 0 1017 -0.2 84
2019-04-16 05:00:00 8.9 4 Sur 7 Sudoeste 0 1017 -0.4 84
2019-04-16 04:00:00 9.2 3 Sudoeste 13 Oeste 0 1017.3 -0.2 84
2019-04-16 03:00:00 10.3 0 Calma 21 Oeste 0 1017.2 0 83
2019-04-16 02:00:00 10.5 6 Oeste 18 Oeste 0 1017.4 0.6 84
2019-04-16 01:00:00 11 6 Oeste 21 Oeste 0 1017.5 1.5 83
2019-04-16 00:00:00 11.7 10 Oeste 26 Oeste 0 1017.2 2.5 83
2019-04-15 23:00:00 11.9 4 Oeste 26 Oeste 0.2 1016.8 3.1 85
2019-04-15 22:00:00 12 8 Oeste 35 Oeste 1.6 1016 3.6 86
2019-04-15 21:00:00 12.3 8 Oeste 26 Oeste 0.2 1014.7 3.7 86
2019-04-15 20:00:00 12.6 13 Oeste 51 Oeste 1.8 1013.7 3.4 87
2019-04-15 19:00:00 13.1 8 Oeste 34 Noroeste 2.4 1012.4 2.8 87
2019-04-15 18:00:00 13.6 14 Noroeste 27 Oeste 1.4 1011 2.7 84
2019-04-15 17:00:00 14.1 9 Oeste 22 Oeste 0.2 1010.3 3 83
2019-04-15 16:00:00 14.2 9 Oeste 48 Noroeste 0 1009.6 3.3 85
2019-04-15 15:00:00 15.4 14 Oeste 32 Oeste 1.8 1008.3 4.2 87
2019-04-15 14:00:00 15.8 14 Oeste 45 Noroeste 2.2 1007.3 2.5 84
2019-04-15 13:00:00 17.3 21 Oeste 61 Noroeste 0 1006.3 1.1 80
2019-04-15 12:00:00 15.7 4 Sudoeste 13 Sudoeste 0 1004.1 -1.8 85
2019-04-15 11:00:00 14.3 2 Oeste 20 Oeste 0 1004.8 -1.4 86
2019-04-15 10:00:00 13.7 3 Sudoeste 17 Oeste 0 1005.2 -1.4 86
2019-04-15 09:00:00 13.5 5 Sudoeste 17 Oeste 0 1005.9 -1.4 86
2019-04-15 08:00:00 13.4 2 Oeste 17 Oeste 0 1006.2 -1.9 86
2019-04-15 07:00:00 13.3 3 Este 19 Oeste 0 1006.6 -2.6 86
2019-04-15 06:00:00 12.8 6 Sudoeste 10 Sudoeste 0 1007.3 -2.7 87
2019-04-15 05:00:00 12.7 2 Oeste 16 Oeste 0 1008.1 -2.8 87
2019-04-15 04:00:00 12.2 6 Oeste 18 Oeste 0 1009.2 -2.6 87
2019-04-15 03:00:00 12.1 8 Oeste 14 Sudoeste 0 1010 -2.4 86
2019-04-15 02:00:00 13.3 2 Sur 13 Oeste 0 1010.9 -2.4 85
2019-04-15 01:00:00 13.9 6 Sudeste 18 Este 0 1011.8 -1.8 84
2019-04-15 00:00:00 14.3 12 Este 29 Este 0 1012.4 -0.7 82
2019-04-14 23:00:00 14 17 Este 30 Este 0 1013.3 0.4 84
2019-04-14 22:00:00 14.6 14 Este 28 Este 0 1013.6 0.4 81
2019-04-14 21:00:00 14.9 16 Este 30 Este 0 1013.1 -0.5 79
2019-04-14 20:00:00 14.9 17 Este 29 Este 0 1012.9 -1 79
2019-04-14 19:00:00 15.4 14 Este 26 Sudeste 0 1013.2 -1.7 76
2019-04-14 18:00:00 16.1 12 Este 25 Este 0 1013.6 -2.1 76
2019-04-14 17:00:00 15.8 17 Este 28 Este 0 1013.9 -1.8 75
2019-04-14 16:00:00 16 18 Este 27 Este 0 1014.9 -0.7 77
2019-04-14 15:00:00 16.2 12 Este 23 Este 0 1015.7 0.3 76
2019-04-14 14:00:00 16.6 13 Este 20 Sudeste 0 1015.7 0.8 76
2019-04-14 13:00:00 17.2 7 Este 21 Nordeste 0 1015.6 0.8 70
2019-04-14 12:00:00 17.6 2 Nordeste 5 Este 0 1015.4 0.5 71
2019-04-14 11:00:00 16.5 0 Calma 5 Este 0 1014.9 0.3 77
2019-04-14 10:00:00 14.2 0 Calma 17 Oeste 0 1014.8 0 83
2019-04-14 09:00:00 12.5 3 Sudoeste 16 Oeste 0 1014.9 -0.3 85
2019-04-14 08:00:00 11.8 0 Calma 15 Oeste 0 1014.6 -0.7 86
2019-04-14 07:00:00 12 2 Sudoeste 15 Oeste 0 1014.8 -0.9 85
2019-04-14 06:00:00 12.6 4 Oeste 15 Oeste 0 1015.2 -0.7 84
2019-04-14 05:00:00 12.8 6 Sudoeste 15 Sudeste 0 1015.3 -0.6 84
2019-04-14 04:00:00 13 3 Sur 15 Oeste 0 1015.7 -0.6 83
2019-04-14 03:00:00 12.8 5 Oeste 19 Oeste 0 1015.9 -0.4 83
2019-04-14 02:00:00 13 4 Oeste 19 Oeste 0 1015.9 -0.3 82
2019-04-14 01:00:00 13.2 4 Oeste 17 Oeste 0 1016.3 -0.1 81
2019-04-14 00:00:00 13.4 3 Oeste 18 Oeste 0 1016.3 0 80
2019-04-13 23:00:00 13.5 4 Sudeste 15 Sudeste 0 1016.2 0 79
2019-04-13 22:00:00 13.6 3 Este 13 Oeste 0 1016.4 0.2 78
2019-04-13 21:00:00 13.8 6 Este 13 Este 0 1016.3 0.3 78
2019-04-13 20:00:00 14.1 9 Este 15 Este 0 1016.2 0 75
2019-04-13 19:00:00 14.6 8 Este 13 Norte 0 1016.2 0 71
2019-04-13 18:00:00 15.8 8 Este 14 Este 0 1016 -0.5 66
2019-04-13 17:00:00 16.6 8 Este 13 Este 0 1016.2 -0.9 63
2019-04-13 16:00:00 16.7 10 Este 17 Este 0 1016.2 -1.1 67
2019-04-13 15:00:00 15.9 12 Este 18 Este 0 1016.5 -0.9 69
2019-04-13 14:00:00 15.6 13 Este 26 Este 0 1017.1 -0.5 69
2019-04-13 13:00:00 16.1 9 Este 13 Este 0 1017.3 -0.2 68
2019-04-13 12:00:00 15.1 4 Nordeste 16 Este 0 1017.4 -0.6 69
2019-04-13 11:00:00 14.5 4 Nordeste 18 Noroeste 0.2 1017.6 0 71
2019-04-13 10:00:00 13.6 4 Norte 19 Oeste 0 1017.5 0.1 80
2019-04-13 09:00:00 10 7 Sudoeste 23 Oeste 0 1018 0.5 85
2019-04-13 08:00:00 8.1 6 Sudoeste 23 Oeste 0 1017.6 0.1 85
2019-04-13 07:00:00 8.1 9 Sudoeste 24 Oeste 0 1017.4 -0.3 84
2019-04-13 06:00:00 8.1 12 Oeste 23 Oeste 0 1017.5 -0.6 84
2019-04-13 05:00:00 8.1 6 Sudoeste 21 Oeste 0 1017.5 -1.1 83
2019-04-13 04:00:00 8.6 3 Sudoeste 23 Oeste 0 1017.7 -1.3 83
2019-04-13 03:00:00 8.4 6 Sudoeste 23 Oeste 0 1018.1 -0.7 83
2019-04-13 02:00:00 8.7 11 Sudoeste 24 Oeste 0 1018.6 -0.3 81
2019-04-13 01:00:00 9.2 17 Oeste 34 Oeste 0 1019 0 81
2019-04-13 00:00:00 9.3 17 Oeste 24 Oeste 0 1018.8 0.4 78
2019-04-12 23:00:00 10.2 6 Sudoeste 21 Oeste 0 1018.9 0.4 76
2019-04-12 22:00:00 11.4 4 Sur 21 Sudeste 0 1019 0.5 72
2019-04-12 21:00:00 12.4 13 Sudeste 35 Sudeste 0 1018.4 -0.3 72
2019-04-12 20:00:00 13 20 Este 38 Este 0 1018.5 -0.5 72
2019-04-12 19:00:00 13.2 22 Este 39 Este 0 1018.5 -1 71
2019-04-12 18:00:00 13.5 26 Este 36 Este 0 1018.7 -1.7 70
2019-04-12 17:00:00 13.8 25 Este 34 Este 0 1019 -1.7 70
2019-04-12 16:00:00 14 23 Este 33 Este 0 1019.5 -1.8 71
2019-04-12 15:00:00 14.2 21 Este 29 Este 0 1020.4 -0.5 70
2019-04-12 14:00:00 14.3 16 Este 24 Este 0 1020.7 -0.1 68
2019-04-12 13:00:00 14.4 13 Nordeste 22 Este 0 1021.3 0.8 68
2019-04-12 12:00:00 14.1 12 Este 19 Este 0 1020.9 0.2 67
2019-04-12 11:00:00 14.2 5 Noroeste 19 Norte 0 1020.8 0.1 74
2019-04-12 10:00:00 12.5 6 Norte 25 Oeste 0 1020.5 -0.2 80
2019-04-12 09:00:00 8.7 12 Oeste 41 Oeste 0 1020.7 0 85
2019-04-12 08:00:00 7.2 3 Sur 19 Oeste 0 1020.7 -0.2 86
2019-04-12 07:00:00 6.9 4 Sudoeste 24 Oeste 0 1020.7 -0.3 86
2019-04-12 06:00:00 7.3 19 Oeste 32 Oeste 0 1020.7 -0.5 86
2019-04-12 05:00:00 7.5 18 Oeste 26 Oeste 0 1020.9 -0.8 85
2019-04-12 04:00:00 8.6 19 Oeste 27 Oeste 0 1021 -0.9 85
2019-04-12 03:00:00 8.8 15 Oeste 27 Oeste 0 1021.2 -0.9 85
2019-04-12 02:00:00 9.5 4 Sudoeste 20 Oeste 0 1021.7 -0.4 85
2019-04-12 01:00:00 10.2 6 Sudoeste 23 Oeste 0 1021.9 -0.3 85
2019-04-12 00:00:00 10.7 4 Oeste 19 Oeste 0 1022.1 0.3 84
2019-04-11 23:00:00 10.7 6 Sudoeste 21 Oeste 0 1022.1 0.5 84
2019-04-11 22:00:00 11.3 6 Sudoeste 23 Oeste 0.2 1022.2 0.7 83
2019-04-11 21:00:00 11.5 7 Oeste 24 Oeste 0 1021.8 0.5 82
2019-04-11 20:00:00 11.7 8 Oeste 27 Oeste 0 1021.6 0.5 83
2019-04-11 19:00:00 11.8 11 Oeste 34 Noroeste 0.2 1021.5 0.5 81
2019-04-11 18:00:00 12.5 14 Noroeste 36 Oeste 0 1021.3 0.3 77
2019-04-11 17:00:00 12.1 17 Noroeste 41 Noroeste 0 1021.1 0.1 76
2019-04-11 16:00:00 12.5 21 Noroeste 47 Noroeste 0 1021 -0.1 73
2019-04-11 15:00:00 13.6 20 Noroeste 50 Noroeste 0 1021 -0.1 67
2019-04-11 14:00:00 14.1 23 Noroeste 48 Noroeste 0 1021 0.2 66
2019-04-11 13:00:00 13.6 15 Noroeste 38 Oeste 0 1021.1 0.6 67
2019-04-11 12:00:00 13.2 16 Noroeste 37 Oeste 0 1021.1 0.7 64
2019-04-11 11:00:00 12.9 15 Oeste 37 Oeste 0 1020.8 0.6 65
2019-04-11 10:00:00 12.2 15 Oeste 36 Oeste 0 1020.5 0.8 68
2019-04-11 09:00:00 11 7 Oeste 31 Oeste 0 1020.4 0.6 72
2019-04-11 08:00:00 10 14 Oeste 31 Oeste 0.2 1020.2 0.3 72
2019-04-11 07:00:00 10.1 12 Oeste 32 Oeste 0 1019.7 -0.1 73
2019-04-11 06:00:00 10.1 12 Oeste 30 Oeste 0 1019.8 0.3 77
2019-04-11 05:00:00 9.8 11 Oeste 30 Oeste 0 1019.9 -0.1 78
2019-04-11 04:00:00 10.3 13 Oeste 34 Oeste 0.2 1019.8 -0.4 79
2019-04-11 03:00:00 10.2 11 Oeste 31 Oeste 0 1019.5 -0.5 78
2019-04-11 02:00:00 10 8 Oeste 27 Oeste 0 1020 -0.1 77
2019-04-11 01:00:00 10.5 8 Oeste 27 Oeste 0.2 1020.2 0.5 78
2019-04-11 00:00:00 10.8 7 Oeste 31 Oeste 0 1020 1.1 77
2019-04-10 23:00:00 11 13 Noroeste 27 Oeste 0.2 1020.1 1.6 77
2019-04-10 22:00:00 11.1 6 Oeste 27 Oeste 0 1019.7 1.7 74
2019-04-10 21:00:00 11.9 6 Oeste 24 Oeste 0 1018.9 1.4 73
2019-04-10 20:00:00 13.2 13 Oeste 29 Noroeste 0 1018.5 1.4 68
2019-04-10 19:00:00 13.2 15 Noroeste 31 Noroeste 0 1018 1.4 68
2019-04-10 18:00:00 14.3 15 Noroeste 33 Noroeste 0 1017.5 1.3 65
2019-04-10 17:00:00 14.2 13 Noroeste 23 Noroeste 0 1017.1 1.6 63
2019-04-10 16:00:00 14.3 9 Noroeste 19 Noroeste 0 1016.6 1.5 64
2019-04-10 15:00:00 14.6 6 Noroeste 18 Noroeste 0.2 1016.2 1.6 61
2019-04-10 14:00:00 14.2 6 Norte 27 Norte 0 1015.5 1.7 61
2019-04-10 13:00:00 14.6 6 Noroeste 19 Noroeste 0 1015.1 1.8 63
2019-04-10 12:00:00 13.1 5 Noroeste 18 Noroeste 0 1014.6 1.9 72
2019-04-10 11:00:00 11.8 4 Sudeste 17 Sudeste 0 1013.8 1.4 76
2019-04-10 10:00:00 10.4 5 Este 27 Oeste 0.4 1013.3 1.7 79
2019-04-10 09:00:00 9.5 4 Sur 19 Oeste 1.4 1012.7 1.2 80
2019-04-10 08:00:00 9.3 12 Oeste 24 Oeste 0.6 1012.4 1.2 81
2019-04-10 07:00:00 9.7 9 Sudoeste 26 Oeste 0.8 1011.6 0.4 77
2019-04-10 06:00:00 9.5 13 Oeste 25 Oeste 0 1011.5 0.2 78
2019-04-10 05:00:00 9.4 8 Sudoeste 26 Oeste 0 1011.2 -0.3 79
2019-04-10 04:00:00 9.7 2 Oeste 23 Oeste 0 1011.2 -0.1 79
2019-04-10 03:00:00 9.6 8 Sudoeste 27 Oeste 0 1011.3 0.2 79
2019-04-10 02:00:00 10.7 4 Oeste 21 Oeste 0 1011.5 1.1 78
2019-04-10 01:00:00 11.1 3 Sudoeste 22 Sudoeste 0 1011.3 1.3 76
2019-04-10 00:00:00 11.5 4 Nordeste 35 Noroeste 0 1011.1 1.5 77
2019-04-09 23:00:00 11.6 13 Noroeste 23 Oeste 0 1010.4 1.3 75
2019-04-09 22:00:00 11.8 5 Oeste 20 Oeste 0 1010 0.9 70
2019-04-09 21:00:00 12.4 9 Este 30 Este 0 1009.6 0.6 70
2019-04-09 20:00:00 12.9 18 Este 33 Este 0 1009.1 0 76
2019-04-09 19:00:00 13.6 19 Este 29 Este 0 1009.1 -0.1 74
2019-04-09 18:00:00 13.3 15 Este 27 Este 0 1009 -0.3 72
2019-04-09 17:00:00 13.5 13 Este 17 Este 0 1009.1 -0.1 74
2019-04-09 16:00:00 14.5 9 Nordeste 17 Noroeste 0 1009.2 0 73
2019-04-09 15:00:00 13.4 6 Noroeste 28 Oeste 0.4 1009.3 0.2 77
2019-04-09 14:00:00 13.1 15 Noroeste 37 Oeste 0 1009.2 0.5 75
2019-04-09 13:00:00 13.8 15 Noroeste 37 Noroeste 0 1009.2 0.9 72
2019-04-09 12:00:00 13.6 10 Oeste 27 Oeste 0 1009.1 1 71
2019-04-09 11:00:00 13.1 6 Noroeste 30 Noroeste 0 1008.7 0.9 73
2019-04-09 10:00:00 12.6 8 Oeste 22 Oeste 0 1008.3 0.9 75
2019-04-09 09:00:00 10.3 6 Sudoeste 25 Oeste 0 1008.1 0.7 76
2019-04-09 08:00:00 8.9 17 Oeste 28 Oeste 0 1007.8 0.5 78
2019-04-09 07:00:00 8.5 14 Sudoeste 24 Oeste 0 1007.4 -0.2 78
2019-04-09 06:00:00 8.6 6 Sudoeste 23 Oeste 0 1007.4 -0.6 80
2019-04-09 05:00:00 8.7 18 Oeste 28 Oeste 0 1007.3 -1 81
2019-04-09 04:00:00 8.8 19 Oeste 28 Oeste 0 1007.6 -1.5 81
2019-04-09 03:00:00 8.4 19 Oeste 29 Oeste 0 1008 -1.5 81
2019-04-09 02:00:00 8.7 3 Sudoeste 23 Oeste 0 1008.3 -1.7 80
2019-04-09 01:00:00 8.8 7 Oeste 23 Oeste 0 1009.1 -1.6 78
2019-04-09 00:00:00 10.5 4 Sur 17 Oeste 0 1009.5 -0.1 72
2019-04-08 23:00:00 10.9 10 Sudeste 21 Este 0 1010 0.7 71
2019-04-08 22:00:00 12 10 Nordeste 37 Oeste 3 1010.7 1.2 72
2019-04-08 21:00:00 12.9 14 Sudeste 42 Este 0 1009.6 -0.2 67
2019-04-08 20:00:00 13.1 25 Este 41 Este 0 1009.3 -0.9 68
2019-04-08 19:00:00 13.4 25 Este 44 Este 0 1009.5 -1 69
2019-04-08 18:00:00 14 19 Este 31 Este 0 1009.8 -0.9 65
2019-04-08 17:00:00 14.1 12 Este 21 Este 0.2 1010.2 -0.4 69
2019-04-08 16:00:00 13.6 12 Este 20 Este 0 1010.5 -0.2 72
2019-04-08 15:00:00 14 13 Este 22 Este 0 1010.7 0.1 70
2019-04-08 14:00:00 15.9 11 Este 15 Este 0 1010.6 0.3 64
2019-04-08 13:00:00 15.4 4 Este 19 Oeste 0 1010.7 0.5 67
2019-04-08 12:00:00 14.2 10 Noroeste 29 Noroeste 0 1010.6 0.7 65
2019-04-08 11:00:00 14.1 8 Noroeste 26 Oeste 0 1010.3 1.1 68
2019-04-08 10:00:00 12.9 11 Oeste 28 Oeste 0 1010.2 1.7 73
2019-04-08 09:00:00 12.3 11 Oeste 31 Oeste 0 1009.9 1.7 71
2019-04-08 08:00:00 11.5 9 Oeste 25 Oeste 0 1009.2 2.8 75
2019-04-08 07:00:00 11.7 10 Oeste 35 Oeste 0 1008.5 2.5 76
2019-04-08 06:00:00 11.6 18 Oeste 53 Oeste 0 1008.2 2.6 77
2019-04-08 05:00:00 10.3 13 Oeste 26 Oeste 0 1006.4 0.6 78
2019-04-08 04:00:00 10.2 10 Oeste 26 Oeste 0 1006 0.1 79
2019-04-08 03:00:00 10.5 3 Noroeste 24 Oeste 0 1005.6 -0.8 79
2019-04-08 02:00:00 10.4 9 Oeste 24 Oeste 0 1005.8 -0.6 77
2019-04-08 01:00:00 10.4 9 Sudoeste 25 Oeste 0 1005.9 -1.6 76
2019-04-08 00:00:00 10.2 12 Sudoeste 25 Oeste 0 1006.4 -1.6 77
2019-04-07 23:00:00 11.1 5 Sur 19 Este 0 1006.4 -1.6 74
2019-04-07 22:00:00 11.3 5 Sur 15 Oeste 0.2 1007.5 -0.2 72
2019-04-07 21:00:00 12.2 9 Sudeste 22 Este 0 1008 0.3 70
2019-04-07 20:00:00 12.5 14 Este 29 Este 0 1008 0.1 68
2019-04-07 19:00:00 12.6 19 Este 34 Este 0 1007.7 -0.7 67
2019-04-07 18:00:00 13 22 Este 29 Este 0 1007.7 -0.6 63
2019-04-07 17:00:00 13.9 17 Este 23 Este 0 1007.9 -0.6 57
2019-04-07 16:00:00 14.7 12 Nordeste 23 Norte 0 1008.4 0.1 54
2019-04-07 15:00:00 14 10 Nordeste 25 Norte 0 1008.3 0.1 53
2019-04-07 14:00:00 14.8 10 Noroeste 36 Noroeste 0 1008.5 0.6 52
2019-04-07 13:00:00 14.4 18 Noroeste 37 Noroeste 0 1008.3 0.6 48
2019-04-07 12:00:00 14.6 18 Noroeste 47 Oeste 0 1008.2 1.2 41
2019-04-07 11:00:00 13.8 17 Oeste 43 Oeste 0 1007.9 1.7 41
2019-04-07 10:00:00 11.6 17 Noroeste 51 Oeste 0 1007.7 2.3 49
2019-04-07 09:00:00 10.6 18 Oeste 49 Oeste 0 1007 2.4 54
2019-04-07 08:00:00 10 20 Oeste 50 Oeste 0 1006.2 2.1 59
2019-04-07 07:00:00 9.6 18 Oeste 47 Oeste 0 1005.4 1.9 64
2019-04-07 06:00:00 9.1 17 Oeste 50 Oeste 0 1004.6 1.4 67
2019-04-07 05:00:00 8.5 18 Oeste 39 Oeste 0 1004.1 0.7 72
2019-04-07 04:00:00 8.3 21 Noroeste 43 Oeste 0 1003.5 0.6 71
2019-04-07 03:00:00 7.8 16 Oeste 45 Oeste 0.4 1003.2 0.8 76
2019-04-07 02:00:00 7.8 12 Noroeste 50 Oeste 0.4 1003.4 1.3 76
2019-04-07 01:00:00 8.7 19 Oeste 51 Oeste 0 1002.9 1.6 69
2019-04-07 00:00:00 8.6 17 Oeste 47 Oeste 0 1002.4 1.6 68
2019-04-06 23:00:00 9.1 21 Oeste 49 Oeste 0 1002.1 1.9 68
2019-04-06 22:00:00 9.3 16 Oeste 38 Sudoeste 0 1001.3 1.4 70
2019-04-06 21:00:00 9.2 14 Oeste 47 Oeste 0.4 1000.8 2 74
2019-04-06 20:00:00 10.1 11 Noroeste 35 Oeste 1.2 1000.2 2.4 75
2019-04-06 19:00:00 10.4 18 Oeste 36 Noroeste 0.8 999.9 2.8 71
2019-04-06 18:00:00 11.4 9 Oeste 36 Noroeste 0 998.8 2.1 65
2019-04-06 17:00:00 12.6 22 Noroeste 46 Noroeste 0 997.8 2 61
2019-04-06 16:00:00 14.7 16 Noroeste 36 Noroeste 0 997.1 1.3 54
2019-04-06 15:00:00 13.5 8 Noroeste 20 Este 0 996.7 0.8 58
2019-04-06 14:00:00 14 4 Nordeste 14 Norte 0 995.8 0.2 58
2019-04-06 13:00:00 13.6 3 Nordeste 15 Noroeste 0 995.8 0.2 58
2019-04-06 12:00:00 14.5 4 Nordeste 15 Norte 0 995.9 0.3 59
2019-04-06 11:00:00 13.1 6 Nordeste 18 Noroeste 0 995.6 0 61
2019-04-06 10:00:00 11.4 4 Norte 20 Oeste 0 995.6 -0.2 68
2019-04-06 09:00:00 7.8 13 Oeste 25 Oeste 0 995.6 -0.6 73
2019-04-06 08:00:00 6.1 18 Oeste 26 Oeste 0 995.6 -0.9 76
2019-04-06 07:00:00 5.8 11 Oeste 23 Oeste 0 995.8 -0.9 77
2019-04-06 06:00:00 6 3 Sur 20 Oeste 0 996.2 -1 78
2019-04-06 05:00:00 6.3 10 Oeste 26 Oeste 0 996.5 -1.2 76
2019-04-06 04:00:00 6.2 3 Sur 21 Oeste 0 996.7 -1.4 77
2019-04-06 03:00:00 6.6 3 Sur 25 Oeste 0 997.2 -1.1 76
2019-04-06 02:00:00 6.5 13 Sudoeste 26 Oeste 0 997.7 -0.4 79
2019-04-06 01:00:00 7.5 4 Sudoeste 19 Oeste 0 998.1 -0.3 77
2019-04-06 00:00:00 8.2 0 Calma 22 Oeste 0 998.3 0.5 78
2019-04-05 23:00:00 9.1 8 Oeste 23 Oeste 0.2 998.1 0.9 76
2019-04-05 22:00:00 9.8 10 Oeste 25 Oeste 0 998.4 2.3 72
2019-04-05 21:00:00 10.6 10 Sudoeste 31 Oeste 0 997.8 2.3 68
2019-04-05 20:00:00 11.2 3 Este 17 Este 0 997.2 2.4 67
2019-04-05 19:00:00 11.8 12 Este 24 Este 0 996.1 1 66
2019-04-05 18:00:00 11.9 13 Este 28 Este 0 995.5 0.2 67
2019-04-05 17:00:00 12.3 21 Este 30 Este 0 994.8 -1 66
2019-04-05 16:00:00 11.5 20 Este 30 Sudeste 0 995.1 -0.2 68
2019-04-05 15:00:00 13 15 Este 27 Este 0 995.3 -0.7 63
2019-04-05 14:00:00 13.6 14 Este 24 Este 0 995.8 -0.1 62
2019-04-05 13:00:00 12.6 15 Sudeste 26 Sudeste 0 995.3 0.3 59
2019-04-05 12:00:00 12.5 4 Nordeste 22 Oeste 0.6 996 1.3 66
2019-04-05 11:00:00 10.7 5 Sudoeste 22 Oeste 0 995.9 1.2 74
2019-04-05 10:00:00 10.4 7 Noroeste 15 Oeste 0 995 0.6 74
2019-04-05 09:00:00 10.1 7 Sudeste 21 Oeste 0.4 994.7 0.4 78
2019-04-05 08:00:00 9.8 6 Sudoeste 21 Oeste 0 994.7 0.7 78
2019-04-05 07:00:00 9.9 7 Sudoeste 24 Oeste 0 994.4 0.7 76
2019-04-05 06:00:00 9.6 11 Oeste 28 Oeste 0 994.3 0.5 75
2019-04-05 05:00:00 9.3 13 Oeste 26 Oeste 0 994 -0.1 72
2019-04-05 04:00:00 10 9 Sudoeste 25 Oeste 0 993.7 -0.6 69
2019-04-05 03:00:00 10.3 9 Sudoeste 24 Oeste 0 993.8 -0.9 68
2019-04-05 02:00:00 10.3 8 Oeste 27 Oeste 0 994.1 -1.2 69
2019-04-05 01:00:00 10.7 3 Norte 23 Oeste 0 994.3 -1.4 66
2019-04-05 00:00:00 11.2 4 Sur 17 Oeste 0 994.7 -1.1 63
2019-04-04 23:00:00 11.5 5 Sudeste 14 Oeste 0 995.3 -1 65
2019-04-04 22:00:00 11.7 5 Sudeste 22 Sudeste 0 995.7 -0.7 67
2019-04-04 21:00:00 12 7 Sudeste 17 Sudeste 0 995.8 -1.1 67
2019-04-04 20:00:00 12 8 Sudeste 31 Este 0 996.3 -0.7 64
2019-04-04 19:00:00 12.3 15 Este 25 Este 0 996.4 -1.4 62
2019-04-04 18:00:00 12.4 12 Este 23 Sudeste 0 996.9 -1.8 60
2019-04-04 17:00:00 12.4 12 Este 19 Este 0 997 -2.5 56
2019-04-04 16:00:00 12.8 12 Este 17 Este 0 997.8 -2.4 54
2019-04-04 15:00:00 13 13 Este 23 Este 0 998.7 -2.9 52
2019-04-04 14:00:00 13.4 19 Este 28 Este 0 999.5 -2.6 48
2019-04-04 13:00:00 14.9 11 Sudoeste 31 Oeste 0 1000.2 -2.1 32
2019-04-04 12:00:00 13.8 10 Noroeste 36 Oeste 0 1001.6 -1 41
2019-04-04 11:00:00 12.3 13 Oeste 51 Oeste 0 1002.1 -0.5 42
2019-04-04 10:00:00 10.2 11 Oeste 37 Oeste 0 1002.3 -0.5 55
2019-04-04 09:00:00 8.8 15 Oeste 47 Sudoeste 0 1002.6 -0.6 57
2019-04-04 08:00:00 7.7 16 Oeste 51 Oeste 0 1002.6 -0.9 61
2019-04-04 07:00:00 7.5 17 Oeste 48 Oeste 0 1002.8 -1.2 63
2019-04-04 06:00:00 7.1 14 Oeste 57 Oeste 0 1003.2 -1.4 67
2019-04-04 05:00:00 7.1 18 Oeste 57 Oeste 0 1003.5 -2.1 68
2019-04-04 04:00:00 7 18 Oeste 63 Oeste 0 1004 -3 69
2019-04-04 03:00:00 6.2 17 Oeste 62 Oeste 0.2 1004.6 -3.3 75
2019-04-04 02:00:00 6.1 15 Oeste 59 Oeste 0.8 1005.6 -1.6 81
2019-04-04 01:00:00 5.1 16 Sudoeste 33 Sudoeste 3 1007 -0.3 83
2019-04-04 00:00:00 5.5 19 Oeste 55 Oeste 3.4 1007.9 0.7 81
2019-04-03 23:00:00 6.2 18 Oeste 52 Oeste 0.4 1007.2 0.1 76
2019-04-03 22:00:00 5.4 20 Oeste 62 Oeste 1.2 1007.3 0 77
2019-04-03 21:00:00 6.7 17 Oeste 55 Oeste 0.2 1007.2 -0.2 70
2019-04-03 20:00:00 8 18 Oeste 55 Oeste 0 1007.1 -0.9 65
2019-04-03 19:00:00 8.9 21 Oeste 63 Oeste 0 1007.3 -0.8 64
2019-04-03 18:00:00 9.6 19 Oeste 51 Oeste 0 1007.4 -0.8 63
2019-04-03 17:00:00 8.2 21 Oeste 69 Noroeste 2 1008 -0.6 72
2019-04-03 16:00:00 8.7 26 Noroeste 67 Oeste 0.6 1008.1 -1 67
2019-04-03 15:00:00 10.7 21 Oeste 57 Oeste 0.2 1008.2 -1.6 61
2019-04-03 14:00:00 10.1 23 Oeste 63 Oeste 0.2 1008.6 -0.8 68
2019-04-03 13:00:00 7 18 Oeste 61 Oeste 1.4 1009.1 -0.9 79
2019-04-03 12:00:00 7.2 21 Noroeste 72 Noroeste 0.4 1009.8 -0.1 76
2019-04-03 11:00:00 9 19 Oeste 51 Oeste 0 1009.4 -1 74
2019-04-03 10:00:00 7.1 21 Oeste 65 Oeste 1.8 1010 0.1 80
2019-04-03 09:00:00 7.5 16 Oeste 49 Oeste 1 1009.9 -1 80
2019-04-03 08:00:00 7.4 23 Oeste 67 Oeste 2.4 1010.4 -0.6 80
2019-04-03 07:00:00 8 15 Oeste 47 Oeste 0.4 1009.9 -1.9 78
2019-04-03 06:00:00 8 20 Oeste 45 Oeste 0.4 1010.9 -1.5 77
2019-04-03 05:00:00 8.4 14 Oeste 51 Oeste 0.8 1011 -2.3 80
2019-04-03 04:00:00 9.3 15 Noroeste 46 Noroeste 0 1011.8 -2 75
2019-04-03 03:00:00 9.7 14 Oeste 51 Oeste 0 1012.4 -2.1 73
2019-04-03 02:00:00 9.8 18 Oeste 38 Oeste 0 1013.3 -1.5 74
2019-04-03 01:00:00 9.8 10 Oeste 32 Oeste 0 1013.8 -1.4 78
2019-04-03 00:00:00 9.6 10 Oeste 36 Noroeste 0.2 1014.5 -0.5 82
2019-04-02 23:00:00 9.9 8 Oeste 38 Oeste 0 1014.8 -0.1 82
2019-04-02 22:00:00 9.8 14 Oeste 39 Oeste 0.6 1015.2 0.4 84
2019-04-02 21:00:00 10.6 19 Noroeste 42 Oeste 0 1015 0 79
2019-04-02 20:00:00 10.7 10 Oeste 36 Noroeste 0.2 1014.9 -0.4 81
2019-04-02 19:00:00 12.2 14 Oeste 35 Oeste 0 1014.8 -0.6 73
2019-04-02 18:00:00 12.4 12 Oeste 37 Oeste 0 1015 -0.6 74
2019-04-02 17:00:00 12.8 19 Noroeste 38 Oeste 0 1015.3 -0.7 71
2019-04-02 16:00:00 13.4 18 Noroeste 36 Noroeste 0 1015.4 -0.9 72
2019-04-02 15:00:00 13.8 19 Noroeste 34 Noroeste 0 1015.6 -1.2 68
2019-04-02 14:00:00 13.6 17 Noroeste 37 Noroeste 0 1016 -0.8 71
2019-04-02 13:00:00 13.9 18 Noroeste 37 Noroeste 0 1016.3 -0.3 71
2019-04-02 12:00:00 13.6 19 Noroeste 37 Noroeste 0 1016.8 0.4 69
2019-04-02 11:00:00 13.5 17 Noroeste 33 Oeste 0 1016.8 0.7 71
2019-04-02 10:00:00 12.3 13 Oeste 35 Oeste 0 1016.6 1.2 76
2019-04-02 09:00:00 11.8 10 Oeste 35 Oeste 0 1016.4 1.5 79
2019-04-02 08:00:00 10.3 7 Oeste 26 Oeste 0 1016.1 0.8 81
2019-04-02 07:00:00 9.2 10 Sudoeste 27 Oeste 0 1015.4 0.1 81
2019-04-02 06:00:00 10.2 7 Oeste 27 Oeste 0 1014.9 -0.2 83
2019-04-02 05:00:00 10 8 Oeste 30 Oeste 0 1015.3 0 83
2019-04-02 04:00:00 9.2 12 Oeste 27 Oeste 0 1015.3 0 81
2019-04-02 03:00:00 9.3 8 Sudoeste 27 Oeste 0 1015.1 -0.3 81
2019-04-02 02:00:00 9.4 14 Sudoeste 27 Oeste 0 1015.3 0.1 83
2019-04-02 01:00:00 10.1 8 Sudoeste 23 Oeste 0 1015.3 0.3 83
2019-04-02 00:00:00 10.7 9 Sudoeste 23 Oeste 0 1015.4 0.9 83
2019-04-01 23:00:00 10.9 6 Sudoeste 20 Oeste 0 1015.2 1.3 82
2019-04-01 22:00:00 11.9 7 Oeste 16 Oeste 0 1015 1.3 80
2019-04-01 21:00:00 13.2 2 Sur 13 Oeste 0 1014.5 0.9 79
2019-04-01 20:00:00 14.5 4 Este 13 Oeste 0 1013.9 0.5 76
2019-04-01 19:00:00 16 0 Calma 13 Noroeste 0 1013.7 0.2 72
2019-04-01 18:00:00 16.2 5 Nordeste 10 Nordeste 0 1013.6 -0.3 70
2019-04-01 17:00:00 16.3 3 Norte 15 Oeste 0 1013.4 -0.4 70
2019-04-01 16:00:00 15.6 5 Norte 15 Oeste 0 1013.5 -0.8 69
2019-04-01 15:00:00 15 10 Nordeste 24 Norte 0 1013.9 -0.2 71
2019-04-01 14:00:00 14.8 9 Norte 20 Oeste 0 1013.8 -0.4 71
2019-04-01 13:00:00 15.5 2 Nordeste 16 Este 0 1014.3 0.4 69
2019-04-01 12:00:00 15.9 5 Noroeste 15 Noroeste 0 1014.1 0.8 68
2019-04-01 11:00:00 14.5 2 Norte 16 Noroeste 0 1014.2 1.6 67
2019-04-01 10:00:00 13 4 Este 23 Oeste 0 1013.9 1.4 79
2019-04-01 09:00:00 8.6 10 Sudoeste 27 Oeste 0 1013.3 1 81
2019-04-01 08:00:00 8.3 18 Sudoeste 28 Oeste 0 1012.6 0.3 81
2019-04-01 07:00:00 8.3 11 Oeste 24 Oeste 0 1012.5 -0.1 82
2019-04-01 06:00:00 8.9 12 Oeste 27 Oeste 0 1012.3 -0.6 81
2019-04-01 05:00:00 8.8 13 Sudoeste 27 Oeste 0 1012.3 -0.7 81
2019-04-01 04:00:00 8.8 11 Oeste 26 Oeste 0 1012.6 -0.7 82
2019-04-01 03:00:00 9.5 5 Oeste 23 Oeste 0 1012.9 -0.5 81
2019-04-01 02:00:00 10.4 4 Sur 14 Oeste 0 1013 -0.1 81
2019-04-01 01:00:00 11.1 2 Sur 14 Sudeste 0 1013.3 0.3 81
2019-04-01 00:00:00 11.3 4 Sur 24 Oeste 0 1013.4 0.9 77
2019-03-31 23:00:00 11.6 3 Oeste 17 Oeste 0 1013.1 0.9 76
2019-03-31 22:00:00 13.3 6 Sudeste 18 Sudeste 0 1013 1.1 78
2019-03-31 21:00:00 13.9 10 Este 24 Este 0 1012.5 0.8 76
2019-03-31 20:00:00 14.7 17 Sudeste 44 Este 0 1012.2 0.6 67
2019-03-31 19:00:00 16 18 Este 31 Este 0 1011.9 -0.1 57
2019-03-31 18:00:00 16.4 16 Este 26 Este 0 1011.7 -0.9 60
2019-03-31 17:00:00 17.1 13 Este 22 Este 0 1011.6 -1.6 62
2019-03-31 16:00:00 17.5 8 Este 14 Nordeste 0 1012 -1.7 65
2019-03-31 15:00:00 16.8 6 Nordeste 14 Norte 0 1012.6 -1.3 69
2019-03-31 14:00:00 15.9 4 Nordeste 18 Este 0 1013.2 -0.6 71
2019-03-31 13:00:00 15.7 7 Este 12 Norte 0 1013.7 0.1 75
2019-03-31 12:00:00 15.1 5 Nordeste 18 Norte 0 1013.9 0.3 77
2019-03-31 11:00:00 14.4 4 Noroeste 18 Noroeste 0 1013.8 0.2 82
2019-03-31 10:00:00 13.1 3 Noroeste 21 Oeste 0 1013.6 0.1 87
2019-03-31 09:00:00 10.5 7 Sudoeste 25 Oeste 0 1013.6 -0.1 88
2019-03-31 08:00:00 9.5 12 Sudoeste 26 Oeste 0 1013.6 -0.7 88
2019-03-31 07:00:00 10.6 9 Sudoeste 23 Oeste 0 1013.5 -1.6 87
2019-03-31 06:00:00 10.8 9 Sudoeste 24 Oeste 0 1013.7 -1.7 86
2019-03-31 05:00:00 11.5 6 Sudoeste 21 Oeste 0 1014.3 -1.4 86
2019-03-31 03:00:00 12.1 0 Calma 14 Oeste 0 1015.4 -1.1 85
2019-03-31 01:00:00 12.6 5 Sudeste 12 Oeste 0 1015.7 -1.2 85
2019-03-31 00:00:00 12.4 3 Sur 14 Oeste 0 1016.1 -0.7 84
2019-03-30 23:00:00 12.8 5 Sudeste 14 Oeste 0 1016.5 0.2 84
2019-03-30 22:00:00 12.8 3 Sudeste 14 Oeste 0 1016.9 0.8 83
2019-03-30 21:00:00 12.9 3 Sudeste 13 Oeste 0 1016.8 0.7 82
2019-03-30 20:00:00 12.8 3 Sudeste 14 Oeste 0 1016.3 0.3 80
2019-03-30 19:00:00 13.5 4 Sudeste 17 Sudeste 0 1016.1 -0.1 79
2019-03-30 18:00:00 13.9 9 Este 17 Sudeste 0 1016.1 -0.5 75
2019-03-30 17:00:00 14.8 8 Este 12 Noroeste 0 1016 -1 72
2019-03-30 16:00:00 15.8 8 Este 12 Norte 0 1016.2 -1 70
2019-03-30 15:00:00 16.6 8 Este 13 Norte 0 1016.6 -0.9 71
2019-03-30 14:00:00 15.9 5 Nordeste 12 Norte 0 1017 -0.5 73
2019-03-30 13:00:00 15.6 4 Nordeste 17 Noroeste 0 1017.2 -0.2 74
2019-03-30 12:00:00 13.9 3 Norte 15 Norte 0 1017.5 0 77
2019-03-30 11:00:00 15 9 Nordeste 13 Este 0 1017.5 0 77
2019-03-30 10:00:00 13.6 8 Nordeste 15 Noroeste 0 1017.4 -0.1 82
2019-03-30 09:00:00 10.8 0 Calma 19 Oeste 0 1017.5 0.1 85
2019-03-30 08:00:00 8.4 2 Sudoeste 22 Oeste 0 1017.5 0.1 86
2019-03-30 07:00:00 8.2 15 Oeste 26 Oeste 0 1017.5 0.3 85
2019-03-30 06:00:00 8.2 13 Oeste 25 Oeste 0 1017.4 -0.2 85
2019-03-30 05:00:00 8.5 22 Oeste 28 Oeste 0 1017.4 -0.5 86
2019-03-30 04:00:00 8.4 21 Oeste 29 Oeste 0 1017.2 -1 85
2019-03-30 03:00:00 8.9 5 Sudoeste 26 Oeste 0 1017.6 -0.9 85
2019-03-30 02:00:00 8.5 7 Sudoeste 23 Oeste 0 1017.9 -0.9 83
2019-03-30 01:00:00 9.1 9 Sudoeste 25 Oeste 0 1018.2 -1 83
2019-03-30 00:00:00 9.2 8 Sudoeste 27 Oeste 0 1018.5 -0.9 82
2019-03-29 23:00:00 9.9 4 Sudoeste 21 Oeste 0 1018.8 -0.4 80
2019-03-29 22:00:00 10.1 7 Sudoeste 22 Oeste 0 1019.2 -0.1 78
2019-03-29 21:00:00 11.2 4 Sudoeste 19 Oeste 0 1019.4 0.2 76
2019-03-29 20:00:00 12 4 Sudeste 13 Sudeste 0 1019.2 -0.1 74
2019-03-29 19:00:00 12.9 7 Este 12 Sudeste 0 1019.3 -0.4 72
2019-03-29 18:00:00 14.2 8 Este 12 Norte 0 1019.2 -1.1 70
2019-03-29 17:00:00 15.1 8 Este 13 Este 0 1019.3 -1.6 67
2019-03-29 16:00:00 15.9 8 Este 13 Este 0 1019.7 -1.7 66
2019-03-29 15:00:00 16.5 7 Este 12 Este 0 1020.3 -1.8 64
2019-03-29 14:00:00 15.7 8 Este 14 Este 0 1020.9 -1.6 66
2019-03-29 13:00:00 15.7 8 Este 14 Oeste 0 1021.4 -1.3 63
2019-03-29 12:00:00 14.8 6 Este 13 Norte 0 1022.1 -0.8 65
2019-03-29 11:00:00 13.9 8 Nordeste 18 Noroeste 0 1022.5 -0.7 66
2019-03-29 10:00:00 13.4 5 Norte 17 Norte 0 1022.7 -0.8 69
2019-03-29 09:00:00 10.9 5 Noroeste 22 Oeste 0 1022.9 -0.5 76
2019-03-29 08:00:00 7.9 16 Oeste 44 Oeste 0 1023.2 -0.5 80
2019-03-29 07:00:00 6.9 21 Oeste 26 Oeste 0 1023.5 -0.5 80
2019-03-29 06:00:00 7 19 Oeste 27 Oeste 0 1023.4 -1.4 81
2019-03-29 05:00:00 7 15 Oeste 27 Oeste 0 1023.7 -1.8 81
2019-03-29 04:00:00 7 19 Oeste 25 Oeste 0 1024 -1.9 80
2019-03-29 03:00:00 7.8 4 Sudoeste 20 Oeste 0 1024.8 -1.6 79
2019-03-29 02:00:00 9.3 4 Sur 17 Este 0 1025.5 -1.1 77
2019-03-29 01:00:00 10.1 7 Sudeste 18 Este 0 1025.9 -1.2 77
2019-03-29 00:00:00 10.4 7 Sudeste 24 Sudeste 0 1026.4 -0.8 77
2019-03-28 23:00:00 10.7 13 Sudeste 21 Sudeste 0 1026.6 -0.4 79
2019-03-28 22:00:00 10.7 8 Sudeste 22 Sudeste 0 1027.1 0 78
2019-03-28 21:00:00 11.3 11 Sudeste 27 Este 0 1027.2 0.2 77
2019-03-28 20:00:00 11.8 15 Sudeste 37 Este 0 1027 -0.3 75
2019-03-28 19:00:00 12.2 21 Este 34 Este 0 1027.1 -0.5 75
2019-03-28 18:00:00 12.8 20 Este 35 Este 0 1027 -1.2 72
2019-03-28 17:00:00 13.3 23 Este 30 Este 0 1027.3 -1.5 69
2019-03-28 16:00:00 14.3 20 Este 28 Este 0 1027.6 -1.6 68
2019-03-28 15:00:00 14.5 19 Este 32 Este 0 1028.2 -1.6 66
2019-03-28 14:00:00 14.6 22 Este 30 Este 0 1028.8 -1.4 66
2019-03-28 13:00:00 14.6 15 Este 26 Este 0 1029.2 -0.9 65
2019-03-28 12:00:00 14 17 Este 26 Este 0 1029.8 -0.4 69
2019-03-28 11:00:00 13.4 17 Este 24 Este 0 1030.2 0.4 62
2019-03-28 10:00:00 13.2 14 Este 19 Este 0 1030.1 0.5 63
2019-03-28 09:00:00 12.2 10 Este 17 Este 0 1030.2 0.9 66
2019-03-28 08:00:00 8.3 4 Oeste 17 Oeste 0 1029.8 0.4 71
2019-03-28 07:00:00 7.9 2 Sur 16 Noroeste 0 1029.6 0.2 70
2019-03-28 06:00:00 8.6 4 Sur 15 Sudeste 0 1029.3 -0.2 66
2019-03-28 05:00:00 8.2 9 Sudeste 19 Oeste 0 1029.4 -0.6 69
2019-03-28 04:00:00 7.7 8 Sudoeste 22 Oeste 0 1029.4 -0.9 67
2019-03-28 03:00:00 9.4 4 Sudeste 17 Sudeste 0 1029.5 -0.9 64
2019-03-28 02:00:00 9.4 9 Sur 22 Sudeste 0 1030 -0.5 65
2019-03-28 01:00:00 9.8 11 Sudeste 23 Sudeste 0 1030.3 0.1 68
2019-03-28 00:00:00 9.6 10 Sudeste 25 Sudeste 0 1030.4 0.3 71
2019-03-27 23:00:00 9.6 8 Sudeste 20 Sudeste 0 1030.5 0.8 70
2019-03-27 22:00:00 9.6 7 Sur 16 Sudoeste 0 1030.2 0.9 71
2019-03-27 21:00:00 10.2 8 Sudeste 19 Sudeste 0 1030.1 1.2 70
2019-03-27 20:00:00 11 11 Sudeste 34 Este 0 1029.7 1 69
2019-03-27 19:00:00 11.7 20 Este 36 Este 0 1029.3 0.7 68
2019-03-27 18:00:00 12.2 21 Este 35 Este 0 1028.9 0.1 66
2019-03-27 17:00:00 12.7 26 Este 38 Este 0 1028.7 -0.1 67
2019-03-27 16:00:00 13.2 24 Este 35 Este 0 1028.6 -0.5 64
2019-03-27 15:00:00 13.5 25 Este 37 Este 0 1028.8 -0.1 63
2019-03-27 14:00:00 13.4 29 Este 42 Este 0 1028.8 0.4 65
2019-03-27 13:00:00 13.5 23 Este 44 Este 0 1029.1 1.2 61
2019-03-27 12:00:00 13.2 30 Este 41 Este 0 1028.9 1.2 63
2019-03-27 11:00:00 13.1 23 Este 38 Este 0 1028.4 1.2 64
2019-03-27 10:00:00 12.7 21 Sudeste 33 Sudeste 0 1027.9 1.2 60
2019-03-27 09:00:00 11.9 21 Sudeste 32 Sudeste 0 1027.7 1.3 61
2019-03-27 08:00:00 10.7 14 Sudeste 24 Sudeste 0 1027.2 0.9 64
2019-03-27 07:00:00 10.2 13 Sudeste 27 Este 0 1026.7 0.6 65
2019-03-27 06:00:00 10.4 15 Sudeste 26 Sudeste 0 1026.4 0.2 66
2019-03-27 05:00:00 10.1 12 Sudeste 26 Este 0 1026.3 -0.1 63
2019-03-27 04:00:00 10.4 14 Sudeste 37 Este 0 1026.1 -0.8 64
2019-03-27 03:00:00 11.4 26 Este 39 Este 0 1026.2 -0.8 65
2019-03-27 02:00:00 11.3 21 Sudeste 36 Sudeste 0 1026.4 -0.4 61
2019-03-27 01:00:00 10.4 14 Sudeste 35 Sudeste 0 1026.9 0.1 58
2019-03-27 00:00:00 10.5 23 Sudeste 43 Sudeste 0 1027 0.2 56
2019-03-26 23:00:00 9.8 25 Sudeste 40 Sudeste 0 1026.8 0.6 60
2019-03-26 22:00:00 9.7 17 Sudeste 35 Sudeste 0 1026.8 0.5 65
2019-03-26 21:00:00 9.6 17 Sudeste 31 Sudeste 0 1026.8 0.8 68
2019-03-26 20:00:00 10 16 Sudeste 46 Este 0 1026.2 0.1 68
2019-03-26 19:00:00 11.1 33 Sudeste 56 Sudeste 0 1026.3 0.1 68
2019-03-26 18:00:00 11.5 35 Este 57 Este 0 1026 -0.3 66
2019-03-26 17:00:00 11.8 33 Este 56 Este 0 1026.1 -0.7 64
2019-03-26 16:00:00 12 34 Este 59 Este 0 1026.2 -0.6 61
2019-03-26 15:00:00 12.1 39 Este 59 Este 0 1026.3 -0.7 60
2019-03-26 14:00:00 12.4 33 Este 60 Este 0 1026.8 -0.4 60
2019-03-26 13:00:00 12.2 37 Este 57 Este 0 1026.8 -0.3 59
2019-03-26 12:00:00 12.3 36 Este 53 Este 0 1027 0.1 60
2019-03-26 11:00:00 12 37 Este 54 Este 0 1027.2 0.4 57
2019-03-26 10:00:00 11.9 39 Este 54 Este 0 1027.1 0.9 56
2019-03-26 09:00:00 11.6 32 Este 49 Este 0 1026.9 0.9 55
2019-03-26 08:00:00 10.8 26 Sudeste 43 Sudeste 0 1026.8 0.8 63
2019-03-26 07:00:00 11 22 Este 41 Sudeste 0 1026.2 0.1 66
2019-03-26 06:00:00 10.9 22 Sudeste 40 Sudeste 0 1026 -0.4 67
2019-03-26 05:00:00 11.3 19 Sudeste 32 Sudeste 0 1026 -0.8 68
2019-03-26 04:00:00 11.5 19 Sudeste 35 Sudeste 0 1026.1 -1 66
2019-03-26 03:00:00 11.3 16 Sudeste 37 Este 0 1026.4 -1.2 64
2019-03-26 02:00:00 11.2 15 Este 30 Este 0 1026.8 -1 65
2019-03-26 01:00:00 11.1 10 Sudeste 25 Sur 0 1027.1 -0.6 62
2019-03-26 00:00:00 10.6 12 Sudeste 23 Sudeste 0 1027.6 0.3 69
2019-03-25 23:00:00 10.9 17 Sudeste 27 Sudeste 0 1027.8 0.6 69
2019-03-25 22:00:00 11.2 13 Sudeste 33 Este 0 1027.7 0.8 69
2019-03-25 21:00:00 11.6 22 Este 33 Este 0 1027.3 0.5 70
2019-03-25 20:00:00 11.7 21 Este 31 Este 0 1027.2 0.3 70
2019-03-25 19:00:00 12.1 21 Este 30 Este 0 1026.9 -0.3 72
2019-03-25 18:00:00 12.4 22 Este 30 Este 0 1026.8 -0.8 68
2019-03-25 17:00:00 13 21 Este 32 Este 0 1026.9 -1 68
2019-03-25 16:00:00 13.3 22 Este 33 Este 0 1027.2 -1 68
2019-03-25 15:00:00 13.9 26 Este 35 Este 0 1027.6 -0.9 66
2019-03-25 14:00:00 14.3 26 Este 34 Este 0 1027.9 -0.6 67
2019-03-25 13:00:00 14.2 23 Este 34 Este 0 1028.2 -0.2 64
2019-03-25 12:00:00 14.1 24 Este 33 Este 0 1028.5 0.6 67
2019-03-25 11:00:00 14.1 18 Sudeste 40 Este 0 1028.5 1.1 64
2019-03-25 10:00:00 12.6 28 Este 42 Este 0 1028.4 1.3 72
2019-03-25 09:00:00 12.6 20 Este 33 Este 0 1027.9 1 76
2019-03-25 08:00:00 12.5 19 Este 26 Este 0 1027.4 0.6 79
2019-03-25 07:00:00 12.1 5 Este 9 Este 0 1027.1 0.1 79
2019-03-25 06:00:00 12.1 4 Sur 18 Este 0 1026.9 -0.1 77
2019-03-25 05:00:00 12.3 12 Este 26 Este 0 1026.8 0 76
2019-03-25 04:00:00 12.2 18 Este 27 Este 0 1027 -0.1 78
2019-03-25 03:00:00 12.5 21 Este 33 Este 0 1027 -0.2 78
2019-03-25 02:00:00 12.5 20 Nordeste 30 Norte 0 1026.8 -0.5 79
2019-03-25 01:00:00 12.8 11 Nordeste 16 Este 0 1027.1 -0.4 80
2019-03-25 00:00:00 12.7 10 Este 23 Nordeste 0 1027.2 0.2 80